sensor_id;sensor_type;location;lat;lon;timestamp;pressure;altitude;pressure_sealevel;temperature;humidity
69239;BME280;56349;51.816;-0.026;2023-10-19T00:01:12;97870.92;;;28.43;28.59
69239;BME280;56349;51.816;-0.026;2023-10-19T00:03:38;97881.66;;;28.69;28.58
69239;BME280;56349;51.816;-0.026;2023-10-19T00:06:03;97883.09;;;28.69;28.58
69239;BME280;56349;51.816;-0.026;2023-10-19T00:08:29;97885.57;;;28.69;28.55
69239;BME280;56349;51.816;-0.026;2023-10-19T00:10:55;97887.22;;;28.69;28.54
69239;BME280;56349;51.816;-0.026;2023-10-19T00:13:21;97892.23;;;28.69;28.54
69239;BME280;56349;51.816;-0.026;2023-10-19T00:15:46;97881.40;;;28.69;28.54
69239;BME280;56349;51.816;-0.026;2023-10-19T00:18:12;97894.26;;;28.68;28.53
69239;BME280;56349;51.816;-0.026;2023-10-19T00:20:38;97903.45;;;28.67;28.52
69239;BME280;56349;51.816;-0.026;2023-10-19T00:23:04;97904.31;;;28.65;28.53
69239;BME280;56349;51.816;-0.026;2023-10-19T00:25:29;97909.06;;;28.63;28.52
69239;BME280;56349;51.816;-0.026;2023-10-19T00:27:55;97909.26;;;28.61;28.53
69239;BME280;56349;51.816;-0.026;2023-10-19T00:30:21;97915.54;;;28.60;28.52
69239;BME280;56349;51.816;-0.026;2023-10-19T00:32:46;97914.47;;;28.59;28.52
69239;BME280;56349;51.816;-0.026;2023-10-19T00:35:12;97929.67;;;28.58;28.51
69239;BME280;56349;51.816;-0.026;2023-10-19T00:37:37;97925.54;;;28.58;28.50
69239;BME280;56349;51.816;-0.026;2023-10-19T00:40:04;97931.24;;;28.57;28.50
69239;BME280;56349;51.816;-0.026;2023-10-19T00:42:29;97940.78;;;28.56;28.49
69239;BME280;56349;51.816;-0.026;2023-10-19T00:44:54;97942.79;;;28.55;28.49
69239;BME280;56349;51.816;-0.026;2023-10-19T00:47:20;97947.14;;;28.28;28.49
69239;BME280;56349;51.816;-0.026;2023-10-19T00:49:46;97951.00;;;28.54;28.47
69239;BME280;56349;51.816;-0.026;2023-10-19T00:52:10;97956.06;;;28.52;28.45
69239;BME280;56349;51.816;-0.026;2023-10-19T00:54:38;97959.43;;;28.44;28.45
69239;BME280;56349;51.816;-0.026;2023-10-19T00:57:03;97964.35;;;28.29;28.50
69239;BME280;56349;51.816;-0.026;2023-10-19T00:59:27;97970.45;;;28.56;28.59
69239;BME280;56349;51.816;-0.026;2023-10-19T01:01:54;97972.10;;;28.14;28.70
69239;BME280;56349;51.816;-0.026;2023-10-19T01:04:18;97979.09;;;28.14;28.84
69239;BME280;56349;51.816;-0.026;2023-10-19T01:06:44;97982.46;;;27.90;29.02
69239;BME280;56349;51.816;-0.026;2023-10-19T01:09:10;97972.72;;;27.90;29.21
69239;BME280;56349;51.816;-0.026;2023-10-19T01:11:35;97976.57;;;27.61;29.43
69239;BME280;56349;51.816;-0.026;2023-10-19T01:16:27;97977.25;;;27.27;29.92
69239;BME280;56349;51.816;-0.026;2023-10-19T01:18:53;97983.60;;;27.02;30.14
69239;BME280;56349;51.816;-0.026;2023-10-19T01:21:20;97993.22;;;26.77;30.36
69239;BME280;56349;51.816;-0.026;2023-10-19T01:23:46;97993.30;;;26.78;30.59
69239;BME280;56349;51.816;-0.026;2023-10-19T01:26:09;97983.78;;;26.27;30.84
69239;BME280;56349;51.816;-0.026;2023-10-19T01:28:36;97987.66;;;26.53;31.06
69239;BME280;56349;51.816;-0.026;2023-10-19T01:31:01;97983.66;;;26.29;31.29
69239;BME280;56349;51.816;-0.026;2023-10-19T01:33:27;97982.90;;;26.07;31.52
69239;BME280;56349;51.816;-0.026;2023-10-19T01:35:52;97984.44;;;25.86;31.73
69239;BME280;56349;51.816;-0.026;2023-10-19T01:38:18;97984.20;;;25.67;31.94
69239;BME280;56349;51.816;-0.026;2023-10-19T01:40:44;97984.35;;;25.69;32.17
69239;BME280;56349;51.816;-0.026;2023-10-19T01:43:09;97984.48;;;25.76;32.35
69239;BME280;56349;51.816;-0.026;2023-10-19T01:45:35;97986.51;;;25.58;32.56
69239;BME280;56349;51.816;-0.026;2023-10-19T01:48:01;97982.47;;;25.41;32.76
69239;BME280;56349;51.816;-0.026;2023-10-19T01:50:27;97987.61;;;25.26;32.94
69239;BME280;56349;51.816;-0.026;2023-10-19T01:52:52;97984.08;;;24.86;33.09
69239;BME280;56349;51.816;-0.026;2023-10-19T01:55:18;97983.10;;;24.97;33.26
69239;BME280;56349;51.816;-0.026;2023-10-19T01:57:44;97988.64;;;24.83;33.44
69239;BME280;56349;51.816;-0.026;2023-10-19T02:00:10;97990.69;;;24.70;33.61
69239;BME280;56349;51.816;-0.026;2023-10-19T02:02:35;97994.60;;;24.59;33.76
69239;BME280;56349;51.816;-0.026;2023-10-19T02:05:01;97994.24;;;24.92;33.90
69239;BME280;56349;51.816;-0.026;2023-10-19T02:07:26;97998.35;;;24.81;34.04
69239;BME280;56349;51.816;-0.026;2023-10-19T02:09:52;97997.02;;;24.48;34.19
69239;BME280;56349;51.816;-0.026;2023-10-19T02:12:18;97996.72;;;24.37;34.34
69239;BME280;56349;51.816;-0.026;2023-10-19T02:14:43;97999.63;;;24.48;34.47
69239;BME280;56349;51.816;-0.026;2023-10-19T02:17:09;97997.35;;;24.37;34.60
69239;BME280;56349;51.816;-0.026;2023-10-19T02:19:35;97998.27;;;24.27;34.72
69239;BME280;56349;51.816;-0.026;2023-10-19T02:22:02;97996.65;;;24.19;34.83
69239;BME280;56349;51.816;-0.026;2023-10-19T02:24:26;97990.97;;;24.10;34.96
69239;BME280;56349;51.816;-0.026;2023-10-19T02:26:53;97989.87;;;24.01;35.08
69239;BME280;56349;51.816;-0.026;2023-10-19T02:29:17;97994.55;;;23.95;35.18
69239;BME280;56349;51.816;-0.026;2023-10-19T02:31:43;97991.43;;;23.90;35.26
69239;BME280;56349;51.816;-0.026;2023-10-19T02:34:11;97980.28;;;24.11;35.32
69239;BME280;56349;51.816;-0.026;2023-10-19T02:36:34;97972.27;;;23.78;35.41
69239;BME280;56349;51.816;-0.026;2023-10-19T02:39:02;97976.76;;;23.71;35.50
69239;BME280;56349;51.816;-0.026;2023-10-19T02:41:26;97974.25;;;23.65;35.59
69239;BME280;56349;51.816;-0.026;2023-10-19T02:43:51;97969.60;;;23.85;35.66
69239;BME280;56349;51.816;-0.026;2023-10-19T02:46:17;97964.56;;;23.80;35.74
69239;BME280;56349;51.816;-0.026;2023-10-19T02:48:43;97969.37;;;23.73;35.83
69239;BME280;56349;51.816;-0.026;2023-10-19T02:51:08;97965.44;;;23.68;35.91
69239;BME280;56349;51.816;-0.026;2023-10-19T02:53:34;97957.44;;;23.63;35.98
69239;BME280;56349;51.816;-0.026;2023-10-19T02:58:25;97949.26;;;23.53;36.12
69239;BME280;56349;51.816;-0.026;2023-10-19T03:00:51;97949.19;;;23.51;36.17
69239;BME280;56349;51.816;-0.026;2023-10-19T03:03:17;97953.37;;;23.71;36.28
69239;BME280;56349;51.816;-0.026;2023-10-19T03:05:43;97954.99;;;23.45;36.47
69239;BME280;56349;51.816;-0.026;2023-10-19T03:08:07;97952.42;;;23.44;36.69
69239;BME280;56349;51.816;-0.026;2023-10-19T03:10:33;97954.90;;;23.66;36.82
69239;BME280;56349;51.816;-0.026;2023-10-19T03:12:58;97951.69;;;23.42;36.93
69239;BME280;56349;51.816;-0.026;2023-10-19T03:15:24;97950.69;;;23.42;37.00
69239;BME280;56349;51.816;-0.026;2023-10-19T03:17:50;97949.05;;;23.64;37.10
69239;BME280;56349;51.816;-0.026;2023-10-19T03:20:16;97949.57;;;23.42;37.15
69239;BME280;56349;51.816;-0.026;2023-10-19T03:22:41;97945.65;;;23.67;37.18
69239;BME280;56349;51.816;-0.026;2023-10-19T03:25:07;97936.09;;;23.42;37.26
69239;BME280;56349;51.816;-0.026;2023-10-19T03:27:33;97932.82;;;23.63;37.34
69239;BME280;56349;51.816;-0.026;2023-10-19T03:29:59;97936.53;;;23.41;37.42
69239;BME280;56349;51.816;-0.026;2023-10-19T03:32:25;97935.50;;;23.49;37.44
69239;BME280;56349;51.816;-0.026;2023-10-19T03:34:51;97929.62;;;23.76;37.50
69239;BME280;56349;51.816;-0.026;2023-10-19T03:37:16;97925.85;;;23.65;37.48
69239;BME280;56349;51.816;-0.026;2023-10-19T03:39:42;97925.69;;;23.80;37.41
69239;BME280;56349;51.816;-0.026;2023-10-19T03:42:07;97919.57;;;24.01;37.26
69239;BME280;56349;51.816;-0.026;2023-10-19T03:44:36;97924.30;;;23.97;37.08
69239;BME280;56349;51.816;-0.026;2023-10-19T03:46:58;97926.61;;;24.16;36.81
69239;BME280;56349;51.816;-0.026;2023-10-19T03:49:24;97928.21;;;24.29;36.58
69239;BME280;56349;51.816;-0.026;2023-10-19T03:51:50;97930.68;;;23.95;36.39
69239;BME280;56349;51.816;-0.026;2023-10-19T03:54:15;97927.42;;;24.45;36.21
69239;BME280;56349;51.816;-0.026;2023-10-19T03:56:41;97924.94;;;23.98;36.12
69239;BME280;56349;51.816;-0.026;2023-10-19T03:59:06;97923.69;;;24.39;36.09
69239;BME280;56349;51.816;-0.026;2023-10-19T04:01:32;97923.21;;;24.33;36.06
69239;BME280;56349;51.816;-0.026;2023-10-19T04:03:58;97925.54;;;24.25;36.07
69239;BME280;56349;51.816;-0.026;2023-10-19T04:06:23;97925.20;;;24.18;36.09
69239;BME280;56349;51.816;-0.026;2023-10-19T04:08:49;97924.55;;;23.86;36.13
69239;BME280;56349;51.816;-0.026;2023-10-19T04:11:15;97924.10;;;23.99;36.17
69239;BME280;56349;51.816;-0.026;2023-10-19T04:13:40;97920.61;;;23.90;36.23
69239;BME280;56349;51.816;-0.026;2023-10-19T04:16:06;97914.16;;;24.31;36.29
69239;BME280;56349;51.816;-0.026;2023-10-19T04:18:32;97916.88;;;23.75;36.34
69239;BME280;56349;51.816;-0.026;2023-10-19T04:20:57;97913.55;;;23.68;36.40
69239;BME280;56349;51.816;-0.026;2023-10-19T04:23:23;97904.91;;;23.87;36.45
69239;BME280;56349;51.816;-0.026;2023-10-19T04:26:01;97905.00;;;23.79;36.50
69239;BME280;56349;51.816;-0.026;2023-10-19T04:28:14;97901.78;;;23.73;36.57
69239;BME280;56349;51.816;-0.026;2023-10-19T04:30:40;97898.13;;;23.71;36.58
69239;BME280;56349;51.816;-0.026;2023-10-19T04:33:05;97898.27;;;23.66;36.63
69239;BME280;56349;51.816;-0.026;2023-10-19T04:35:31;97898.53;;;23.81;36.69
69239;BME280;56349;51.816;-0.026;2023-10-19T04:37:56;97895.51;;;23.54;36.74
69239;BME280;56349;51.816;-0.026;2023-10-19T04:40:23;97893.46;;;23.48;36.78
69239;BME280;56349;51.816;-0.026;2023-10-19T04:42:48;97891.16;;;23.64;36.84
69239;BME280;56349;51.816;-0.026;2023-10-19T04:45:13;97891.52;;;23.58;36.91
69239;BME280;56349;51.816;-0.026;2023-10-19T04:47:39;97886.86;;;23.52;36.97
69239;BME280;56349;51.816;-0.026;2023-10-19T04:50:06;97887.39;;;23.49;37.05
69239;BME280;56349;51.816;-0.026;2023-10-19T04:52:31;97880.76;;;23.25;37.15
69239;BME280;56349;51.816;-0.026;2023-10-19T04:54:57;97879.00;;;23.44;37.29
69239;BME280;56349;51.816;-0.026;2023-10-19T04:57:22;97881.35;;;23.43;37.49
69239;BME280;56349;51.816;-0.026;2023-10-19T04:59:48;97880.05;;;23.41;37.67
69239;BME280;56349;51.816;-0.026;2023-10-19T05:02:14;97881.53;;;23.40;37.87
69239;BME280;56349;51.816;-0.026;2023-10-19T05:04:39;97881.52;;;23.40;38.05
69239;BME280;56349;51.816;-0.026;2023-10-19T05:07:05;97880.02;;;23.42;38.18
69239;BME280;56349;51.816;-0.026;2023-10-19T05:09:32;97876.41;;;23.47;38.27
69239;BME280;56349;51.816;-0.026;2023-10-19T05:11:56;97874.68;;;23.50;38.36
69239;BME280;56349;51.816;-0.026;2023-10-19T05:14:22;97873.13;;;23.29;38.46
69239;BME280;56349;51.816;-0.026;2023-10-19T05:16:48;97872.76;;;23.53;38.56
69239;BME280;56349;51.816;-0.026;2023-10-19T05:19:13;97870.06;;;23.34;38.61
69239;BME280;56349;51.816;-0.026;2023-10-19T05:21:38;97870.79;;;23.41;38.62
69239;BME280;56349;51.816;-0.026;2023-10-19T05:24:05;97870.03;;;23.64;38.69
69239;BME280;56349;51.816;-0.026;2023-10-19T05:26:30;97868.55;;;23.68;38.73
69239;BME280;56349;51.816;-0.026;2023-10-19T05:28:55;97869.15;;;23.71;38.77
69239;BME280;56349;51.816;-0.026;2023-10-19T05:31:21;97868.05;;;23.72;38.84
69239;BME280;56349;51.816;-0.026;2023-10-19T05:33:46;97865.44;;;23.75;38.87
69239;BME280;56349;51.816;-0.026;2023-10-19T05:36:12;97867.60;;;23.55;38.90
69239;BME280;56349;51.816;-0.026;2023-10-19T05:38:38;97867.15;;;23.58;38.92
69239;BME280;56349;51.816;-0.026;2023-10-19T05:41:03;97865.41;;;23.64;38.91
69239;BME280;56349;51.816;-0.026;2023-10-19T05:43:29;97864.56;;;23.69;38.90
69239;BME280;56349;51.816;-0.026;2023-10-19T05:45:54;97865.96;;;23.49;38.86
69239;BME280;56349;51.816;-0.026;2023-10-19T05:48:20;97861.24;;;23.81;38.83
69239;BME280;56349;51.816;-0.026;2023-10-19T05:50:45;97858.61;;;23.57;38.84
69239;BME280;56349;51.816;-0.026;2023-10-19T05:53:11;97860.52;;;23.60;38.85
69239;BME280;56349;51.816;-0.026;2023-10-19T05:55:37;97856.53;;;23.92;38.83
69239;BME280;56349;51.816;-0.026;2023-10-19T05:58:03;97856.33;;;23.68;38.85
69239;BME280;56349;51.816;-0.026;2023-10-19T06:00:28;97855.36;;;23.69;38.85
69239;BME280;56349;51.816;-0.026;2023-10-19T06:02:53;97852.47;;;23.69;38.89
69239;BME280;56349;51.816;-0.026;2023-10-19T06:05:19;97850.72;;;23.93;38.94
69239;BME280;56349;51.816;-0.026;2023-10-19T06:07:46;97851.31;;;23.93;38.97
69239;BME280;56349;51.816;-0.026;2023-10-19T06:10:13;97852.18;;;23.94;38.99
69239;BME280;56349;51.816;-0.026;2023-10-19T06:12:36;97855.28;;;23.69;39.00
69239;BME280;56349;51.816;-0.026;2023-10-19T06:15:02;97861.91;;;23.97;38.99
69239;BME280;56349;51.816;-0.026;2023-10-19T06:17:27;97862.96;;;24.20;38.95
69239;BME280;56349;51.816;-0.026;2023-10-19T06:19:53;97873.46;;;24.00;38.92
69239;BME280;56349;51.816;-0.026;2023-10-19T06:22:19;97876.00;;;23.75;38.86
69239;BME280;56349;51.816;-0.026;2023-10-19T06:24:44;97877.82;;;23.76;38.80
69239;BME280;56349;51.816;-0.026;2023-10-19T06:27:10;97877.18;;;23.77;38.74
69239;BME280;56349;51.816;-0.026;2023-10-19T06:29:36;97876.31;;;23.78;38.69
69239;BME280;56349;51.816;-0.026;2023-10-19T06:32:01;97873.90;;;24.02;38.65
69239;BME280;56349;51.816;-0.026;2023-10-19T06:34:27;97870.90;;;24.02;38.61
69239;BME280;56349;51.816;-0.026;2023-10-19T06:36:52;97875.08;;;24.01;38.56
69239;BME280;56349;51.816;-0.026;2023-10-19T06:39:18;97872.43;;;24.24;38.49
69239;BME280;56349;51.816;-0.026;2023-10-19T06:41:44;97873.18;;;24.02;38.42
69239;BME280;56349;51.816;-0.026;2023-10-19T06:44:10;97874.06;;;24.02;38.37
69239;BME280;56349;51.816;-0.026;2023-10-19T06:46:35;97873.45;;;24.01;38.33
69239;BME280;56349;51.816;-0.026;2023-10-19T06:49:01;97876.64;;;23.72;38.29
69239;BME280;56349;51.816;-0.026;2023-10-19T06:51:26;97884.58;;;23.97;38.27
69239;BME280;56349;51.816;-0.026;2023-10-19T06:53:52;97884.16;;;24.18;38.22
69239;BME280;56349;51.816;-0.026;2023-10-19T06:56:18;97884.34;;;23.67;38.19
69239;BME280;56349;51.816;-0.026;2023-10-19T06:58:43;97884.91;;;23.66;38.17
69239;BME280;56349;51.816;-0.026;2023-10-19T07:01:09;97887.10;;;24.14;38.13
69239;BME280;56349;51.816;-0.026;2023-10-19T07:03:35;97889.49;;;23.88;38.13
69239;BME280;56349;51.816;-0.026;2023-10-19T07:06:00;97886.64;;;23.87;38.08
69239;BME280;56349;51.816;-0.026;2023-10-19T07:08:26;97882.92;;;24.12;38.02
69239;BME280;56349;51.816;-0.026;2023-10-19T07:10:52;97883.66;;;23.93;38.00
69239;BME280;56349;51.816;-0.026;2023-10-19T07:13:18;97886.00;;;23.73;37.89
69239;BME280;56349;51.816;-0.026;2023-10-19T07:15:45;97885.87;;;23.81;37.86
69239;BME280;56349;51.816;-0.026;2023-10-19T07:18:09;97887.29;;;23.90;37.88
69239;BME280;56349;51.816;-0.026;2023-10-19T07:20:35;97889.70;;;24.01;37.87
69239;BME280;56349;51.816;-0.026;2023-10-19T07:23:02;97887.36;;;24.41;37.88
69239;BME280;56349;51.816;-0.026;2023-10-19T07:25:26;97883.73;;;24.11;37.95
69239;BME280;56349;51.816;-0.026;2023-10-19T07:27:52;97882.57;;;24.59;38.09
69239;BME280;56349;51.816;-0.026;2023-10-19T07:30:17;97878.57;;;24.48;37.75
69239;BME280;56349;51.816;-0.026;2023-10-19T07:32:43;97878.56;;;25.06;37.39
69239;BME280;56349;51.816;-0.026;2023-10-19T07:35:09;97878.15;;;25.16;37.01
69239;BME280;56349;51.816;-0.026;2023-10-19T07:37:34;97876.48;;;25.00;36.70
69239;BME280;56349;51.816;-0.026;2023-10-19T07:40:00;97879.65;;;25.35;36.30
69239;BME280;56349;51.816;-0.026;2023-10-19T07:42:26;97875.93;;;25.65;35.91
69239;BME280;56349;51.816;-0.026;2023-10-19T07:44:52;97878.42;;;25.92;35.51
69239;BME280;56349;51.816;-0.026;2023-10-19T07:47:17;97878.61;;;25.99;35.15
69239;BME280;56349;51.816;-0.026;2023-10-19T07:49:43;97878.46;;;25.99;34.74
69239;BME280;56349;51.816;-0.026;2023-10-19T07:52:09;97876.55;;;26.72;34.40
69239;BME280;56349;51.816;-0.026;2023-10-19T07:54:35;97879.13;;;26.46;34.04
69239;BME280;56349;51.816;-0.026;2023-10-19T07:57:00;97877.84;;;26.67;33.73
69239;BME280;56349;51.816;-0.026;2023-10-19T07:59:26;97883.77;;;26.88;33.44
69239;BME280;56349;51.816;-0.026;2023-10-19T08:01:51;97880.62;;;27.07;33.11
69239;BME280;56349;51.816;-0.026;2023-10-19T08:04:17;97876.36;;;27.02;32.93
69239;BME280;56349;51.816;-0.026;2023-10-19T08:06:43;97875.94;;;27.38;32.70
69239;BME280;56349;51.816;-0.026;2023-10-19T08:09:08;97876.61;;;27.03;32.51
69239;BME280;56349;51.816;-0.026;2023-10-19T08:11:34;97877.09;;;27.17;32.30
69239;BME280;56349;51.816;-0.026;2023-10-19T08:13:59;97874.66;;;27.27;32.11
69239;BME280;56349;51.816;-0.026;2023-10-19T08:16:25;97874.71;;;27.65;32.01
69239;BME280;56349;51.816;-0.026;2023-10-19T08:18:51;97869.22;;;27.73;31.85
69239;BME280;56349;51.816;-0.026;2023-10-19T08:21:16;97870.18;;;27.58;31.67
69239;BME280;56349;51.816;-0.026;2023-10-19T08:23:46;97867.81;;;27.68;31.51
69239;BME280;56349;51.816;-0.026;2023-10-19T08:26:09;97864.37;;;27.75;31.37
69239;BME280;56349;51.816;-0.026;2023-10-19T08:28:33;97866.56;;;27.88;31.28
69239;BME280;56349;51.816;-0.026;2023-10-19T08:30:59;97866.38;;;27.99;31.15
69239;BME280;56349;51.816;-0.026;2023-10-19T08:33:24;97868.57;;;28.08;31.01
69239;BME280;56349;51.816;-0.026;2023-10-19T08:35:50;97871.82;;;28.17;30.91
69239;BME280;56349;51.816;-0.026;2023-10-19T08:38:16;97871.64;;;28.26;30.79
69239;BME280;56349;51.816;-0.026;2023-10-19T08:40:42;97870.52;;;27.91;30.68
69239;BME280;56349;51.816;-0.026;2023-10-19T08:43:08;97874.30;;;28.44;30.55
69239;BME280;56349;51.816;-0.026;2023-10-19T08:45:34;97872.64;;;28.07;30.46
69239;BME280;56349;51.816;-0.026;2023-10-19T08:48:00;97870.60;;;28.35;30.41
69239;BME280;56349;51.816;-0.026;2023-10-19T08:50:24;97869.34;;;28.66;30.35
69239;BME280;56349;51.816;-0.026;2023-10-19T08:52:51;97866.17;;;28.02;30.21
69239;BME280;56349;51.816;-0.026;2023-10-19T08:55:15;97864.33;;;28.37;30.07
69239;BME280;56349;51.816;-0.026;2023-10-19T08:57:41;97869.56;;;28.44;29.96
69239;BME280;56349;51.816;-0.026;2023-10-19T09:00:08;97872.18;;;28.26;29.80
69239;BME280;56349;51.816;-0.026;2023-10-19T09:02:33;97873.67;;;28.34;29.63
69239;BME280;56349;51.816;-0.026;2023-10-19T09:04:58;97873.90;;;28.63;29.53
69239;BME280;56349;51.816;-0.026;2023-10-19T09:07:24;97875.18;;;28.40;29.44
69239;BME280;56349;51.816;-0.026;2023-10-19T09:09:50;97877.76;;;28.43;29.34
69239;BME280;56349;51.816;-0.026;2023-10-19T09:12:15;97879.67;;;28.76;29.22
69239;BME280;56349;51.816;-0.026;2023-10-19T09:14:41;97874.87;;;28.54;29.19
69239;BME280;56349;51.816;-0.026;2023-10-19T09:17:07;97876.37;;;28.85;29.16
69239;BME280;56349;51.816;-0.026;2023-10-19T09:19:38;97870.46;;;28.63;29.09
69239;BME280;56349;51.816;-0.026;2023-10-19T09:21:59;97867.38;;;28.67;29.04
69239;BME280;56349;51.816;-0.026;2023-10-19T09:24:24;97867.56;;;28.46;29.00
69239;BME280;56349;51.816;-0.026;2023-10-19T09:26:50;97867.29;;;28.70;28.97
69239;BME280;56349;51.816;-0.026;2023-10-19T09:29:17;97872.35;;;28.71;28.93
69239;BME280;56349;51.816;-0.026;2023-10-19T09:31:43;97869.88;;;28.71;28.89
69239;BME280;56349;51.816;-0.026;2023-10-19T09:34:08;97873.03;;;28.69;28.88
69239;BME280;56349;51.816;-0.026;2023-10-19T09:36:32;97874.33;;;28.91;28.92
69239;BME280;56349;51.816;-0.026;2023-10-19T09:38:58;97870.91;;;28.89;28.89
69239;BME280;56349;51.816;-0.026;2023-10-19T09:41:24;97870.50;;;28.89;28.87
69239;BME280;56349;51.816;-0.026;2023-10-19T09:43:50;97868.83;;;28.63;28.83
69239;BME280;56349;51.816;-0.026;2023-10-19T09:46:22;97870.63;;;28.91;28.80
69239;BME280;56349;51.816;-0.026;2023-10-19T09:48:42;97868.26;;;28.69;28.72
69239;BME280;56349;51.816;-0.026;2023-10-19T09:51:07;97866.16;;;28.72;28.65
69239;BME280;56349;51.816;-0.026;2023-10-19T09:53:32;97863.21;;;28.69;28.67
69239;BME280;56349;51.816;-0.026;2023-10-19T09:55:58;97864.93;;;28.69;28.64
69239;BME280;56349;51.816;-0.026;2023-10-19T09:58:27;97864.56;;;28.71;28.61
69239;BME280;56349;51.816;-0.026;2023-10-19T10:00:48;97869.26;;;28.72;28.60
69239;BME280;56349;51.816;-0.026;2023-10-19T10:05:44;97875.87;;;28.76;28.53
69239;BME280;56349;51.816;-0.026;2023-10-19T10:10:30;97874.18;;;28.58;28.46
69239;BME280;56349;51.816;-0.026;2023-10-19T10:17:49;97871.58;;;28.71;28.35
69239;BME280;56349;51.816;-0.026;2023-10-19T10:22:38;97869.68;;;28.89;28.36
69239;BME280;56349;51.816;-0.026;2023-10-19T10:25:04;97876.20;;;28.85;28.38
69239;BME280;56349;51.816;-0.026;2023-10-19T10:27:29;97874.81;;;28.81;28.40
69239;BME280;56349;51.816;-0.026;2023-10-19T10:29:55;97873.44;;;29.05;28.40
69239;BME280;56349;51.816;-0.026;2023-10-19T10:34:45;97875.90;;;29.00;28.42
69239;BME280;56349;51.816;-0.026;2023-10-19T10:37:12;97879.60;;;28.72;28.43
69239;BME280;56349;51.816;-0.026;2023-10-19T10:39:38;97879.52;;;28.71;28.41
69239;BME280;56349;51.816;-0.026;2023-10-19T10:42:04;97880.54;;;28.97;28.41
69239;BME280;56349;51.816;-0.026;2023-10-19T10:44:35;97879.30;;;28.96;28.41
69239;BME280;56349;51.816;-0.026;2023-10-19T10:46:53;97885.25;;;28.94;28.42
69239;BME280;56349;51.816;-0.026;2023-10-19T10:49:18;97887.16;;;28.93;28.41
69239;BME280;56349;51.816;-0.026;2023-10-19T10:51:43;97886.34;;;28.65;28.41
69239;BME280;56349;51.816;-0.026;2023-10-19T10:54:09;97886.08;;;28.65;28.37
69239;BME280;56349;51.816;-0.026;2023-10-19T10:56:40;97888.62;;;28.93;28.39
69239;BME280;56349;51.816;-0.026;2023-10-19T11:01:30;97885.17;;;28.90;28.38
69239;BME280;56349;51.816;-0.026;2023-10-19T11:06:17;97882.10;;;28.65;28.36
69239;BME280;56349;51.816;-0.026;2023-10-19T11:08:42;97882.22;;;28.96;28.32
69239;BME280;56349;51.816;-0.026;2023-10-19T11:11:09;97881.36;;;28.98;28.29
69239;BME280;56349;51.816;-0.026;2023-10-19T11:13:33;97876.44;;;28.72;28.28
69239;BME280;56349;51.816;-0.026;2023-10-19T11:15:59;97872.30;;;29.00;28.26
69239;BME280;56349;51.816;-0.026;2023-10-19T11:18:29;97869.48;;;29.03;28.23
69239;BME280;56349;51.816;-0.026;2023-10-19T11:20:54;97857.96;;;28.55;28.21
69239;BME280;56349;51.816;-0.026;2023-10-19T11:23:16;97855.68;;;29.06;28.20
69239;BME280;56349;51.816;-0.026;2023-10-19T11:25:42;97850.97;;;28.81;28.22
69239;BME280;56349;51.816;-0.026;2023-10-19T11:28:16;97853.63;;;28.82;28.26
69239;BME280;56349;51.816;-0.026;2023-10-19T11:30:33;97854.63;;;28.86;28.34
69239;BME280;56349;51.816;-0.026;2023-10-19T11:33:00;97850.94;;;29.19;28.42
69239;BME280;56349;51.816;-0.026;2023-10-19T11:35:27;97844.67;;;28.92;28.56
69239;BME280;56349;51.816;-0.026;2023-10-19T11:37:52;97837.49;;;28.91;28.64
69239;BME280;56349;51.816;-0.026;2023-10-19T11:40:16;97832.70;;;28.89;28.74
69239;BME280;56349;51.816;-0.026;2023-10-19T11:42:43;97828.10;;;28.88;28.81
69239;BME280;56349;51.816;-0.026;2023-10-19T11:45:08;97824.14;;;28.87;28.90
69239;BME280;56349;51.816;-0.026;2023-10-19T11:47:32;97827.54;;;28.87;28.93
69239;BME280;56349;51.816;-0.026;2023-10-19T11:49:58;97823.04;;;28.87;28.93
69239;BME280;56349;51.816;-0.026;2023-10-19T11:52:23;97821.42;;;28.86;28.95
69239;BME280;56349;51.816;-0.026;2023-10-19T11:54:49;97816.22;;;29.12;29.00
69239;BME280;56349;51.816;-0.026;2023-10-19T11:57:14;97816.01;;;28.85;29.03
69239;BME280;56349;51.816;-0.026;2023-10-19T11:59:40;97817.26;;;29.10;29.10
69239;BME280;56349;51.816;-0.026;2023-10-19T12:02:05;97812.46;;;29.09;29.07
69239;BME280;56349;51.816;-0.026;2023-10-19T12:04:31;97811.39;;;28.81;29.06
69239;BME280;56349;51.816;-0.026;2023-10-19T12:06:57;97807.19;;;28.82;29.04
69239;BME280;56349;51.816;-0.026;2023-10-19T12:09:22;97804.14;;;28.85;29.00
69239;BME280;56349;51.816;-0.026;2023-10-19T12:11:48;97805.01;;;28.87;28.99
69239;BME280;56349;51.816;-0.026;2023-10-19T12:14:13;97804.60;;;29.15;29.01
69239;BME280;56349;51.816;-0.026;2023-10-19T12:16:39;97804.06;;;28.91;28.98
69239;BME280;56349;51.816;-0.026;2023-10-19T12:19:04;97805.13;;;29.22;28.95
69239;BME280;56349;51.816;-0.026;2023-10-19T12:21:30;97802.93;;;28.99;28.91
69239;BME280;56349;51.816;-0.026;2023-10-19T12:23:55;97802.34;;;29.02;28.91
69239;BME280;56349;51.816;-0.026;2023-10-19T12:26:21;97793.22;;;29.06;28.88
69239;BME280;56349;51.816;-0.026;2023-10-19T12:28:47;97791.93;;;29.08;28.85
69239;BME280;56349;51.816;-0.026;2023-10-19T12:31:12;97795.72;;;29.08;28.84
69239;BME280;56349;51.816;-0.026;2023-10-19T12:33:38;97799.09;;;29.10;28.84
69239;BME280;56349;51.816;-0.026;2023-10-19T12:36:04;97789.88;;;29.12;28.84
69239;BME280;56349;51.816;-0.026;2023-10-19T12:38:30;97788.82;;;29.12;28.81
69239;BME280;56349;51.816;-0.026;2023-10-19T12:40:55;97788.81;;;29.12;28.82
69239;BME280;56349;51.816;-0.026;2023-10-19T12:43:21;97793.41;;;29.14;28.82
69239;BME280;56349;51.816;-0.026;2023-10-19T12:45:47;97793.42;;;29.41;28.81
69239;BME280;56349;51.816;-0.026;2023-10-19T12:48:12;97792.46;;;29.16;28.82
69239;BME280;56349;51.816;-0.026;2023-10-19T12:50:38;97789.44;;;29.18;28.75
69239;BME280;56349;51.816;-0.026;2023-10-19T12:53:04;97788.96;;;29.19;28.75
69239;BME280;56349;51.816;-0.026;2023-10-19T12:55:29;97786.21;;;29.19;28.64
69239;BME280;56349;51.816;-0.026;2023-10-19T12:57:55;97780.77;;;29.01;28.47
69239;BME280;56349;51.816;-0.026;2023-10-19T13:00:21;97778.37;;;28.98;28.53
69239;BME280;56349;51.816;-0.026;2023-10-19T13:02:46;97775.17;;;29.44;28.62
69239;BME280;56349;51.816;-0.026;2023-10-19T13:05:12;97778.38;;;28.94;28.61